Time,TemperatureF,DewpointF,PressureIn,WindDirection,WindDirectionDegrees,WindSpeedMPH,WindSpeedGustMPH,Humidity,HourlyPrecipIn,Conditions,Clouds,dailyrainin,SolarRadiationWatts/m^2,SoftwareType,DateUTC
2013-03-11 00:00:00,34.3,24.8,30.17,SE,127,0.0,0.0,68,0.00,CLR,FEW,0.00,0.0,WeatherDisplay:10.37,2013-03-11 04:00:00,
2013-03-11 00:01:00,34.3,24.8,30.17,SE,127,0.0,0.0,68,0.00,CLR,FEW,0.00,0.0,WeatherDisplay:10.37,2013-03-11 04:01:00,
2013-03-11 00:02:00,34.2,24.7,30.17,SE,127,1.2,0.0,68,0.00,BKN,FEW,0.00,0.0,WeatherDisplay:10.37,2013-03-11 04:02:00,
2013-03-11 00:07:00,34.0,24.5,30.17,SE,127,0.0,0.0,68,0.00,BKN,FEW,0.00,0.0,WeatherDisplay:10.37,2013-03-11 04:07:00,
2013-03-11 00:13:00,33.9,24.4,30.17,SE,127,1.2,0.0,68,0.00,BKN,FEW,0.00,0.0,WeatherDisplay:10.37,2013-03-11 04:13:00,
2013-03-11 00:18:00,34.0,24.5,30.17,SE,127,1.2,1.2,68,0.00,BKN,FEW,0.00,0.0,WeatherDisplay:10.37,2013-03-11 04:18:00,
2013-03-11 00:23:00,34.2,24.7,30.17,SE,127,2.3,2.3,68,0.00,BKN,FEW,0.00,0.0,WeatherDisplay:10.37,2013-03-11 04:23:00,
2013-03-11 00:28:00,34.1,25.0,30.17,SE,127,3.5,3.5,69,0.00,BKN,FEW,0.00,0.0,WeatherDisplay:10.37,2013-03-11 04:28:00,
2013-03-11 00:33:00,34.1,25.0,30.17,SE,127,0.0,0.0,69,0.00,BKN,FEW,0.00,0.0,WeatherDisplay:10.37,2013-03-11 04:33:00,
2013-03-11 00:38:00,33.9,25.5,30.17,SE,127,0.0,0.0,71,0.00,BKN,FEW,0.00,0.0,WeatherDisplay:10.37,2013-03-11 04:38:00,
2013-03-11 00:43:00,33.7,25.0,30.18,East,96,2.3,2.3,70,0.00,BKN,FEW,0.00,0.0,WeatherDisplay:10.37,2013-03-11 04:43:00,
2013-03-11 00:48:00,33.6,25.5,30.17,East,96,0.0,0.0,72,0.00,BKN,FEW,0.00,0.0,WeatherDisplay:10.37,2013-03-11 04:48:00,
2013-03-11 00:53:00,33.4,25.3,30.17,East,96,0.0,0.0,72,0.00,BKN,FEW,0.00,0.0,WeatherDisplay:10.37,2013-03-11 04:53:00,
2013-03-11 00:58:00,33.4,25.3,30.17,East,96,1.2,1.2,72,0.00,BKN,FEW,0.00,0.0,WeatherDisplay:10.37,2013-03-11 04:58:00,
2013-03-11 01:03:00,33.4,25.3,30.17,East,96,1.2,0.0,72,0.00,OVC,FEW,0.00,0.0,WeatherDisplay:10.37,2013-03-11 05:03:00,
2013-03-11 01:08:00,33.4,25.3,30.18,East,96,1.2,1.2,72,0.00,OVC,FEW,0.00,0.0,WeatherDisplay:10.37,2013-03-11 05:08:00,
2013-03-11 01:13:00,33.4,25.3,30.17,East,96,1.2,0.0,72,0.00,OVC,FEW,0.00,0.0,WeatherDisplay:10.37,2013-03-11 05:13:00,
2013-03-11 01:18:00,33.4,25.3,30.17,East,96,0.0,0.0,72,0.00,OVC,FEW,0.00,0.0,WeatherDisplay:10.37,2013-03-11 05:18:00,
2013-03-11 01:24:00,33.4,25.0,30.17,East,96,1.2,0.0,71,0.00,OVC,FEW,0.00,0.0,WeatherDisplay:10.37,2013-03-11 05:24:00,
2013-03-11 01:29:00,33.4,25.0,30.17,East,96,1.2,0.0,71,0.00,OVC,FEW,0.00,0.0,WeatherDisplay:10.37,2013-03-11 05:29:00,
2013-03-11 01:34:00,33.4,25.3,30.17,East,96,0.0,0.0,72,0.00,OVC,FEW,0.00,0.0,WeatherDisplay:10.37,2013-03-11 05:34:00,
2013-03-11 01:39:00,33.4,25.3,30.17,East,96,1.0,0.0,72,0.00,OVC,FEW,0.00,0.0,WeatherDisplay:10.37,2013-03-11 05:39:00,
2013-03-11 01:44:00,33.4,25.3,30.17,East,96,0.0,0.0,72,0.00,OVC,FEW,0.00,0.0,WeatherDisplay:10.37,2013-03-11 05:44:00,
2013-03-11 01:49:00,33.4,25.0,30.17,East,96,0.0,0.0,71,0.00,OVC,FEW,0.00,0.0,WeatherDisplay:10.37,2013-03-11 05:49:00,
2013-03-11 01:54:00,33.5,25.1,30.17,East,96,0.0,0.0,71,0.00,OVC,FEW,0.00,0.0,WeatherDisplay:10.37,2013-03-11 05:54:00,
2013-03-11 01:59:00,33.6,25.2,30.17,East,96,1.2,0.0,71,0.00,OVC,FEW,0.00,0.0,WeatherDisplay:10.37,2013-03-11 05:59:00,
2013-03-11 02:04:00,33.5,24.8,30.16,East,96,1.2,1.2,70,0.00,BKN,FEW,0.00,0.0,WeatherDisplay:10.37,2013-03-11 06:04:00,
2013-03-11 02:09:00,33.5,25.1,30.16,East,96,0.0,0.0,71,0.00,BKN,FEW,0.00,0.0,WeatherDisplay:10.37,2013-03-11 06:09:00,
2013-03-11 02:14:00,33.4,25.0,30.16,East,96,1.2,0.0,71,0.00,BKN,FEW,0.00,0.0,WeatherDisplay:10.37,2013-03-11 06:14:00,
2013-03-11 02:19:00,33.3,25.2,30.15,East,96,0.0,0.0,72,0.00,BKN,FEW,0.00,0.0,WeatherDisplay:10.37,2013-03-11 06:19:00,
2013-03-11 02:24:00,33.1,25.1,30.15,East,96,0.0,0.0,72,0.00,BKN,FEW,0.00,0.0,WeatherDisplay:10.37,2013-03-11 06:24:00,
2013-03-11 02:29:00,33.0,25.0,30.14,East,96,1.2,0.0,72,0.00,BKN,FEW,0.00,0.0,WeatherDisplay:10.37,2013-03-11 06:29:00,
2013-03-11 02:34:00,33.0,25.3,30.14,East,96,0.0,0.0,73,0.00,BKN,FEW,0.00,0.0,WeatherDisplay:10.37,2013-03-11 06:34:00,
2013-03-11 02:39:00,32.9,25.2,30.14,East,96,0.0,0.0,73,0.00,BKN,FEW,0.00,0.0,WeatherDisplay:10.37,2013-03-11 06:39:00,
2013-03-11 02:44:00,32.8,25.1,30.14,East,96,1.2,1.2,73,0.00,BKN,FEW,0.00,0.0,WeatherDisplay:10.37,2013-03-11 06:44:00,
2013-03-11 02:49:00,32.7,25.0,30.14,East,96,0.0,0.0,73,0.00,BKN,FEW,0.00,0.0,WeatherDisplay:10.37,2013-03-11 06:49:00,
2013-03-11 02:54:00,32.6,25.2,30.13,East,96,0.0,0.0,74,0.00,BKN,FEW,0.00,0.0,WeatherDisplay:10.37,2013-03-11 06:54:00,
2013-03-11 02:59:00,32.5,25.1,30.13,East,96,1.2,0.0,74,0.00,BKN,FEW,0.00,0.0,WeatherDisplay:10.37,2013-03-11 06:59:00,
2013-03-11 03:04:00,32.5,25.5,30.12,East,96,1.2,1.2,75,0.00,BKN,FEW,0.00,0.0,WeatherDisplay:10.37,2013-03-11 07:04:00,
2013-03-11 03:09:00,32.5,25.1,30.12,East,96,2.0,2.0,74,0.00,BKN,FEW,0.00,0.0,WeatherDisplay:10.37,2013-03-11 07:09:00,
2013-03-11 03:14:00,32.5,25.1,30.12,East,96,1.2,1.2,74,0.00,BKN,FEW,0.00,0.0,WeatherDisplay:10.37,2013-03-11 07:14:00,
2013-03-11 03:19:00,32.5,25.1,30.12,East,96,1.2,1.2,74,0.00,BKN,FEW,0.00,0.0,WeatherDisplay:10.37,2013-03-11 07:19:00,
2013-03-11 03:24:00,32.4,25.4,30.11,ESE,105,3.5,3.5,75,0.00,BKN,FEW,0.00,0.0,WeatherDisplay:10.37,2013-03-11 07:24:00,
2013-03-11 03:29:00,32.5,25.1,30.12,ESE,123,1.2,1.2,74,0.00,BKN,FEW,0.00,0.0,WeatherDisplay:10.37,2013-03-11 07:29:00,
2013-03-11 03:34:00,32.5,25.1,30.11,ESE,123,0.0,0.0,74,0.00,BKN,FEW,0.00,0.0,WeatherDisplay:10.37,2013-03-11 07:34:00,
2013-03-11 03:39:00,32.5,25.1,30.11,ESE,123,2.3,2.3,74,0.00,BKN,FEW,0.00,0.0,WeatherDisplay:10.37,2013-03-11 07:39:00,
2013-03-11 03:45:00,32.6,25.2,30.11,ESE,123,2.3,2.3,74,0.00,BKN,FEW,0.00,0.0,WeatherDisplay:10.37,2013-03-11 07:45:00,
2013-03-11 03:50:00,32.7,25.3,30.10,ESE,123,1.2,0.0,74,0.00,BKN,FEW,0.00,0.0,WeatherDisplay:10.37,2013-03-11 07:50:00,
2013-03-11 03:55:00,32.7,25.0,30.10,ESE,123,2.3,2.3,73,0.00,BKN,FEW,0.00,0.0,WeatherDisplay:10.37,2013-03-11 07:55:00,
2013-03-11 04:00:00,32.8,25.1,30.09,ESE,113,4.0,4.0,73,0.00,BKN,FEW,0.00,0.0,WeatherDisplay:10.37,2013-03-11 08:00:00,
2013-03-11 04:05:00,32.9,25.2,30.09,ESE,122,5.0,5.0,73,0.00,BKN,FEW,0.00,0.0,WeatherDisplay:10.37,2013-03-11 08:05:00,
2013-03-11 04:10:00,32.9,25.2,30.09,SE,142,5.0,5.0,73,0.00,BKN,FEW,0.00,0.0,WeatherDisplay:10.37,2013-03-11 08:10:00,
2013-03-11 04:15:00,32.8,25.1,30.09,SE,134,3.5,3.5,73,0.00,BKN,FEW,0.00,0.0,WeatherDisplay:10.37,2013-03-11 08:15:00,
2013-03-11 04:20:00,32.9,25.2,30.09,SE,134,3.0,3.0,73,0.00,BKN,FEW,0.00,0.0,WeatherDisplay:10.37,2013-03-11 08:20:00,
2013-03-11 04:25:00,33.0,25.3,30.09,ESE,109,4.6,4.6,73,0.00,BKN,FEW,0.00,0.0,WeatherDisplay:10.37,2013-03-11 08:25:00,
2013-03-11 04:30:00,33.2,25.5,30.09,ESE,103,4.0,4.0,73,0.00,BKN,FEW,0.00,0.0,WeatherDisplay:10.37,2013-03-11 08:30:00,
2013-03-11 04:35:00,33.2,25.5,30.09,ESE,103,3.5,3.5,73,0.00,BKN,FEW,0.00,0.0,WeatherDisplay:10.37,2013-03-11 08:35:00,
2013-03-11 04:40:00,33.1,25.4,30.09,ESE,113,4.0,4.0,73,0.00,BKN,FEW,0.00,0.0,WeatherDisplay:10.37,2013-03-11 08:40:00,
2013-03-11 04:45:00,33.1,25.4,30.09,ESE,114,3.0,3.0,73,0.00,BKN,FEW,0.00,0.0,WeatherDisplay:10.37,2013-03-11 08:45:00,
2013-03-11 04:50:00,33.0,25.3,30.09,East,96,3.5,3.5,73,0.00,BKN,FEW,0.00,0.0,WeatherDisplay:10.37,2013-03-11 08:50:00,
2013-03-11 04:55:00,32.9,25.5,30.09,ESE,105,3.5,3.5,74,0.00,BKN,FEW,0.00,0.0,WeatherDisplay:10.37,2013-03-11 08:55:00,
2013-03-11 05:00:00,32.9,25.5,30.10,ESE,108,2.3,2.3,74,0.00,BKN,FEW,0.00,0.0,WeatherDisplay:10.37,2013-03-11 09:00:00,
2013-03-11 05:05:00,32.8,25.4,30.10,ENE,67,2.0,2.0,74,0.00,CLR,FEW,0.00,0.0,WeatherDisplay:10.37,2013-03-11 09:05:00,
2013-03-11 05:10:00,32.8,25.4,30.10,ENE,64,0.0,0.0,74,0.00,CLR,FEW,0.00,0.0,WeatherDisplay:10.37,2013-03-11 09:10:00,
2013-03-11 05:15:00,32.8,25.4,30.10,ENE,75,0.0,0.0,74,0.00,CLR,FEW,0.00,0.0,WeatherDisplay:10.37,2013-03-11 09:15:00,
2013-03-11 05:20:00,32.8,25.4,30.10,East,82,1.2,0.0,74,0.00,CLR,FEW,0.00,0.0,WeatherDisplay:10.37,2013-03-11 09:20:00,
2013-03-11 05:25:00,32.9,25.5,30.10,East,82,0.0,0.0,74,0.00,CLR,FEW,0.00,0.0,WeatherDisplay:10.37,2013-03-11 09:25:00,
2013-03-11 05:30:00,32.9,25.2,30.10,East,82,0.0,0.0,73,0.00,CLR,FEW,0.00,0.0,WeatherDisplay:10.37,2013-03-11 09:30:00,
2013-03-11 05:35:00,33.1,25.4,30.11,East,82,1.2,1.2,73,0.00,CLR,FEW,0.00,0.0,WeatherDisplay:10.37,2013-03-11 09:35:00,
2013-03-11 05:40:00,33.1,25.4,30.11,East,82,0.0,0.0,73,0.00,CLR,FEW,0.00,0.0,WeatherDisplay:10.37,2013-03-11 09:40:00,
2013-03-11 05:45:00,33.2,25.5,30.11,East,82,0.0,0.0,73,0.00,CLR,FEW,0.00,0.0,WeatherDisplay:10.37,2013-03-11 09:45:00,
2013-03-11 05:50:00,33.1,25.7,30.12,East,82,0.0,0.0,74,0.00,CLR,FEW,0.00,0.0,WeatherDisplay:10.37,2013-03-11 09:50:00,
2013-03-11 05:55:00,33.0,25.6,30.12,East,82,0.0,0.0,74,0.00,CLR,FEW,0.00,0.0,WeatherDisplay:10.37,2013-03-11 09:55:00,
2013-03-11 06:00:00,32.9,25.2,30.12,East,82,0.0,0.0,73,0.00,CLR,FEW,0.00,0.0,WeatherDisplay:10.37,2013-03-11 10:00:00,
2013-03-11 06:05:00,32.9,25.2,30.13,East,82,0.0,0.0,73,0.00,CLR,FEW,0.00,0.0,WeatherDisplay:10.37,2013-03-11 10:05:00,
2013-03-11 06:10:00,32.8,25.1,30.13,East,82,0.0,0.0,73,0.00,CLR,FEW,0.00,0.0,WeatherDisplay:10.37,2013-03-11 10:10:00,
2013-03-11 06:15:00,32.5,26.1,30.14,East,88,1.2,1.2,77,0.00,CLR,FEW,0.00,0.0,WeatherDisplay:10.37,2013-03-11 10:15:00,
2013-03-11 06:20:00,32.0,25.6,30.14,East,88,0.0,0.0,77,0.00,CLR,FEW,0.00,0.0,WeatherDisplay:10.37,2013-03-11 10:20:00,
2013-03-11 06:25:00,31.6,25.5,30.13,East,100,2.3,2.3,78,0.00,CLR,FEW,0.00,0.0,WeatherDisplay:10.37,2013-03-11 10:25:00,
2013-03-11 06:30:00,31.4,25.6,30.13,SE,134,2.3,2.3,79,0.00,CLR,FEW,0.00,0.0,WeatherDisplay:10.37,2013-03-11 10:30:00,
2013-03-11 06:35:00,31.3,25.8,30.13,SE,134,0.0,0.0,80,0.00,CLR,FEW,0.00,0.0,WeatherDisplay:10.37,2013-03-11 10:35:00,
2013-03-11 06:40:00,31.2,25.7,30.14,SE,134,1.2,0.0,80,0.00,CLR,FEW,0.00,0.0,WeatherDisplay:10.37,2013-03-11 10:40:00,
2013-03-11 06:45:00,31.1,25.7,30.14,SE,134,0.0,0.0,80,0.00,CLR,FEW,0.00,0.0,WeatherDisplay:10.37,2013-03-11 10:45:00,
2013-03-11 06:50:00,31.0,25.6,30.14,SE,134,0.0,0.0,80,0.00,CLR,FEW,0.00,0.0,WeatherDisplay:10.37,2013-03-11 10:50:00,
2013-03-11 06:55:00,31.1,25.7,30.13,SE,146,3.5,3.5,80,0.00,CLR,FEW,0.00,0.0,WeatherDisplay:10.37,2013-03-11 10:55:00,
2013-03-11 07:00:00,31.0,25.6,30.14,SE,146,1.2,1.2,80,0.00,CLR,FEW,0.00,0.0,WeatherDisplay:10.37,2013-03-11 11:00:00,
2013-03-11 07:05:00,30.9,25.8,30.14,SE,146,0.0,0.0,81,0.00,SCT,FEW,0.00,0.0,WeatherDisplay:10.37,2013-03-11 11:05:00,
2013-03-11 07:10:00,30.9,25.5,30.13,SE,146,1.2,0.0,80,0.00,SCT,FEW,0.00,0.0,WeatherDisplay:10.37,2013-03-11 11:10:00,
2013-03-11 07:15:00,31.0,25.6,30.14,SE,144,1.2,1.2,80,0.00,SCT,FEW,0.00,7.0,WeatherDisplay:10.37,2013-03-11 11:15:00,
2013-03-11 07:20:00,31.2,25.4,30.14,SE,144,1.2,1.2,79,0.00,SCT,FEW,0.00,12.0,WeatherDisplay:10.37,2013-03-11 11:20:00,
2013-03-11 07:25:00,31.4,25.3,30.14,North,5,3.5,3.5,78,0.00,SCT,FEW,0.00,21.0,WeatherDisplay:10.37,2013-03-11 11:25:00,
2013-03-11 07:31:00,31.6,25.5,30.13,North,9,3.5,3.5,78,0.00,SCT,FEW,0.00,26.0,WeatherDisplay:10.37,2013-03-11 11:31:00,
2013-03-11 07:36:00,31.7,25.6,30.13,North,9,2.0,2.0,78,0.00,SCT,FEW,0.00,32.0,WeatherDisplay:10.37,2013-03-11 11:36:00,
2013-03-11 07:41:00,32.0,25.6,30.12,North,9,0.0,0.0,77,0.00,SCT,FEW,0.00,35.0,WeatherDisplay:10.37,2013-03-11 11:41:00,
2013-03-11 07:46:00,32.3,25.3,30.12,North,5,1.2,0.0,75,0.00,SCT,FEW,0.00,42.0,WeatherDisplay:10.37,2013-03-11 11:46:00,
2013-03-11 07:51:00,32.8,25.7,30.12,SE,141,1.2,0.0,75,0.00,SCT,FEW,0.00,62.0,WeatherDisplay:10.37,2013-03-11 11:51:00,
2013-03-11 07:56:00,33.3,25.9,30.12,SE,141,1.2,0.0,74,0.00,SCT,FEW,0.00,58.0,WeatherDisplay:10.37,2013-03-11 11:56:00,
2013-03-11 08:02:00,33.4,26.3,30.12,SE,141,1.2,1.2,75,0.00,BKN,FEW,0.00,44.0,WeatherDisplay:10.37,2013-03-11 12:02:00,
2013-03-11 08:07:00,32.9,26.2,30.11,SE,141,1.0,1.0,76,0.00,BKN,FEW,0.00,42.0,WeatherDisplay:10.37,2013-03-11 12:07:00,
2013-03-11 08:12:00,32.6,25.6,30.11,SE,141,0.0,0.0,75,0.00,BKN,FEW,0.00,51.0,WeatherDisplay:10.37,2013-03-11 12:12:00,
2013-03-11 08:17:00,32.5,25.5,30.11,SE,141,0.0,0.0,75,0.00,BKN,FEW,0.00,65.0,WeatherDisplay:10.37,2013-03-11 12:17:00,
2013-03-11 08:22:00,32.8,26.1,30.11,SE,141,0.0,0.0,76,0.00,BKN,FEW,0.00,70.0,WeatherDisplay:10.37,2013-03-11 12:22:00,
2013-03-11 08:27:00,32.9,25.8,30.11,SE,144,2.0,2.0,75,0.00,BKN,FEW,0.00,76.0,WeatherDisplay:10.37,2013-03-11 12:27:00,
2013-03-11 08:32:00,32.9,25.8,30.11,ESE,118,1.2,1.2,75,0.00,BKN,FEW,0.00,88.0,WeatherDisplay:10.37,2013-03-11 12:32:00,
2013-03-11 08:37:00,32.9,25.8,30.11,ESE,116,5.0,5.0,75,0.00,BKN,FEW,0.00,123.0,WeatherDisplay:10.37,2013-03-11 12:37:00,
2013-03-11 08:42:00,33.4,26.3,30.11,ESE,120,3.5,3.5,75,0.00,BKN,FEW,0.00,158.0,WeatherDisplay:10.37,2013-03-11 12:42:00,
2013-03-11 08:47:00,34.0,26.3,30.11,ESE,104,4.6,4.6,73,0.00,BKN,FEW,0.00,188.0,WeatherDisplay:10.37,2013-03-11 12:47:00,
2013-03-11 08:52:00,34.5,26.7,30.11,ESE,121,4.0,4.0,73,0.00,BKN,FEW,0.00,199.0,WeatherDisplay:10.37,2013-03-11 12:52:00,
2013-03-11 08:57:00,34.8,26.4,30.11,ESE,105,4.0,4.0,71,0.00,BKN,FEW,0.00,183.0,WeatherDisplay:10.37,2013-03-11 12:57:00,
2013-03-11 09:03:00,35.1,26.6,30.11,ESE,118,4.0,4.0,71,0.00,SCT,FEW,0.00,246.0,WeatherDisplay:10.37,2013-03-11 13:03:00,
2013-03-11 09:08:00,35.6,26.8,30.11,ESE,103,2.0,2.0,70,0.00,SCT,FEW,0.00,376.0,WeatherDisplay:10.37,2013-03-11 13:08:00,
2013-03-11 09:13:00,36.3,26.7,30.11,East,88,4.0,4.0,68,0.00,SCT,FEW,0.00,383.0,WeatherDisplay:10.37,2013-03-11 13:13:00,
2013-03-11 09:18:00,37.4,26.7,30.10,East,101,5.8,5.8,65,0.00,SCT,FEW,0.00,352.0,WeatherDisplay:10.37,2013-03-11 13:18:00,
2013-03-11 09:23:00,37.9,26.8,30.10,SE,140,5.0,5.0,64,0.00,SCT,FEW,0.00,243.0,WeatherDisplay:10.37,2013-03-11 13:23:00,
2013-03-11 09:28:00,38.0,26.5,30.10,ESE,105,3.5,3.5,63,0.00,SCT,FEW,0.00,353.0,WeatherDisplay:10.37,2013-03-11 13:28:00,
2013-03-11 09:33:00,38.1,26.2,30.10,ESE,105,6.0,6.0,62,0.00,SCT,FEW,0.00,171.0,WeatherDisplay:10.37,2013-03-11 13:33:00,
2013-03-11 09:38:00,37.6,26.1,30.10,East,100,3.5,3.5,63,0.00,SCT,FEW,0.00,171.0,WeatherDisplay:10.37,2013-03-11 13:38:00,
2013-03-11 09:43:00,37.5,26.4,30.10,East,101,3.0,3.0,64,0.00,SCT,FEW,0.00,206.0,WeatherDisplay:10.37,2013-03-11 13:43:00,
2013-03-11 09:48:00,37.7,26.2,30.10,ESE,112,4.0,4.0,63,0.00,SCT,FEW,0.00,179.0,WeatherDisplay:10.37,2013-03-11 13:48:00,
2013-03-11 09:53:00,37.9,26.4,30.10,SE,134,3.5,3.5,63,0.00,SCT,FEW,0.00,162.0,WeatherDisplay:10.37,2013-03-11 13:53:00,
2013-03-11 09:58:00,38.1,26.2,30.10,SE,139,3.5,3.5,62,0.00,SCT,FEW,0.00,214.0,WeatherDisplay:10.37,2013-03-11 13:58:00,
2013-03-11 10:03:00,38.4,26.9,30.10,ESE,102,5.0,5.0,63,0.00,BKN,FEW,0.00,251.0,WeatherDisplay:10.37,2013-03-11 14:03:00,
2013-03-11 10:08:00,38.8,26.5,30.10,SSE,161,4.0,4.0,61,0.00,BKN,FEW,0.00,315.0,WeatherDisplay:10.37,2013-03-11 14:08:00,
2013-03-11 10:13:00,39.2,26.9,30.10,ESE,118,3.5,3.5,61,0.00,BKN,FEW,0.00,345.0,WeatherDisplay:10.37,2013-03-11 14:13:00,
2013-03-11 10:18:00,39.6,26.8,30.10,SSE,159,6.0,6.0,60,0.00,BKN,FEW,0.00,288.0,WeatherDisplay:10.37,2013-03-11 14:18:00,
2013-03-11 10:23:00,39.8,27.4,30.10,ESE,120,6.9,6.9,61,0.00,BKN,FEW,0.00,392.0,WeatherDisplay:10.37,2013-03-11 14:23:00,
2013-03-11 10:28:00,40.2,27.4,30.10,ESE,117,6.9,6.9,60,0.00,BKN,FEW,0.00,429.0,WeatherDisplay:10.37,2013-03-11 14:28:00,
2013-03-11 10:33:00,40.6,27.8,30.10,SE,124,5.8,5.8,60,0.00,BKN,FEW,0.00,420.0,WeatherDisplay:10.37,2013-03-11 14:33:00,
2013-03-11 10:38:00,40.8,27.2,30.10,ESE,108,4.0,4.0,58,0.00,BKN,FEW,0.00,378.0,WeatherDisplay:10.37,2013-03-11 14:38:00,
2013-03-11 10:43:00,41.1,27.0,30.10,ESE,104,4.6,4.6,57,0.00,BKN,FEW,0.00,318.0,WeatherDisplay:10.37,2013-03-11 14:43:00,
2013-03-11 10:48:00,41.3,26.8,30.10,ESE,110,6.0,6.0,56,0.00,BKN,FEW,0.00,299.0,WeatherDisplay:10.37,2013-03-11 14:48:00,
2013-03-11 10:53:00,41.4,26.9,30.10,SE,125,4.0,4.0,56,0.00,BKN,FEW,0.00,227.0,WeatherDisplay:10.37,2013-03-11 14:53:00,
2013-03-11 10:58:00,41.5,27.0,30.10,ESE,112,4.6,4.6,56,0.00,BKN,FEW,0.00,209.0,WeatherDisplay:10.37,2013-03-11 14:58:00,
2013-03-11 11:03:00,41.7,27.1,30.09,ESE,117,6.9,6.9,56,0.00,CLR,FEW,0.00,229.0,WeatherDisplay:10.37,2013-03-11 15:03:00,
2013-03-11 11:08:00,41.9,27.3,30.09,SE,139,3.5,3.5,56,0.00,CLR,FEW,0.00,248.0,WeatherDisplay:10.37,2013-03-11 15:08:00,
2013-03-11 11:13:00,42.2,27.2,30.09,East,100,6.0,6.0,55,0.00,CLR,FEW,0.00,301.0,WeatherDisplay:10.37,2013-03-11 15:13:00,
2013-03-11 11:19:00,42.5,27.5,30.09,SSE,159,6.0,6.0,55,0.00,CLR,FEW,0.00,346.0,WeatherDisplay:10.37,2013-03-11 15:19:00,
2013-03-11 11:24:00,43.1,27.6,30.09,East,101,3.5,3.5,54,0.00,CLR,FEW,0.00,388.0,WeatherDisplay:10.37,2013-03-11 15:24:00,
2013-03-11 11:29:00,43.5,27.9,30.08,SE,127,7.0,7.0,54,0.00,CLR,FEW,0.00,403.0,WeatherDisplay:10.37,2013-03-11 15:29:00,
2013-03-11 11:34:00,43.7,28.1,30.08,SSE,151,6.0,6.0,54,0.00,CLR,FEW,0.00,429.0,WeatherDisplay:10.37,2013-03-11 15:34:00,
2013-03-11 11:39:00,44.1,27.6,30.07,SE,138,7.0,7.0,52,0.00,CLR,FEW,0.00,399.0,WeatherDisplay:10.37,2013-03-11 15:39:00,
2013-03-11 11:44:00,44.2,27.7,30.07,SE,136,4.0,4.0,52,0.00,CLR,FEW,0.00,359.0,WeatherDisplay:10.37,2013-03-11 15:44:00,
2013-03-11 11:49:00,44.3,27.8,30.07,SE,143,3.5,3.5,52,0.00,CLR,FEW,0.00,439.0,WeatherDisplay:10.37,2013-03-11 15:49:00,
2013-03-11 11:54:00,44.6,28.0,30.07,SSE,154,6.0,6.0,52,0.00,CLR,FEW,0.00,483.0,WeatherDisplay:10.37,2013-03-11 15:54:00,
2013-03-11 11:59:00,44.8,28.2,30.07,ESE,112,6.9,6.9,52,0.00,CLR,FEW,0.00,513.0,WeatherDisplay:10.37,2013-03-11 15:59:00,
2013-03-11 12:04:00,45.1,28.0,30.07,SE,146,11.0,11.0,51,0.00,BKN,FEW,0.00,677.0,WeatherDisplay:10.37,2013-03-11 16:04:00,
2013-03-11 12:09:00,45.4,28.3,30.07,SE,142,7.0,7.0,51,0.00,BKN,FEW,0.00,424.0,WeatherDisplay:10.37,2013-03-11 16:09:00,
2013-03-11 12:14:00,45.9,28.8,30.07,East,99,6.0,6.0,51,0.00,BKN,FEW,0.00,717.0,WeatherDisplay:10.37,2013-03-11 16:14:00,
2013-03-11 12:19:00,46.4,28.8,30.07,SSE,151,6.0,6.0,50,0.00,BKN,FEW,0.00,621.0,WeatherDisplay:10.37,2013-03-11 16:19:00,
2013-03-11 12:24:00,47.0,28.3,30.07,ESE,112,7.0,7.0,48,0.00,BKN,FEW,0.00,696.0,WeatherDisplay:10.37,2013-03-11 16:24:00,
2013-03-11 12:29:00,47.5,28.8,30.06,SE,137,7.0,7.0,48,0.00,BKN,FEW,0.00,659.0,WeatherDisplay:10.37,2013-03-11 16:29:00,
2013-03-11 12:34:00,47.6,28.3,30.07,ESE,121,4.6,4.6,47,0.00,BKN,FEW,0.00,387.0,WeatherDisplay:10.37,2013-03-11 16:34:00,
2013-03-11 12:39:00,47.6,27.8,30.07,East,94,6.9,6.9,46,0.00,BKN,FEW,0.00,494.0,WeatherDisplay:10.37,2013-03-11 16:39:00,
2013-03-11 12:44:00,47.7,28.9,30.07,ESE,109,0.0,0.0,48,0.00,BKN,FEW,0.00,399.0,WeatherDisplay:10.37,2013-03-11 16:44:00,
2013-03-11 12:49:00,48.2,28.4,30.07,ESE,109,1.2,1.2,46,0.00,BKN,FEW,0.00,345.0,WeatherDisplay:10.37,2013-03-11 16:49:00,
2013-03-11 12:54:00,48.7,28.3,30.07,SE,126,1.2,1.2,45,0.00,BKN,FEW,0.00,318.0,WeatherDisplay:10.37,2013-03-11 16:54:00,
2013-03-11 12:59:00,49.1,28.1,30.06,SE,126,3.5,3.5,44,0.00,BKN,FEW,0.00,274.0,WeatherDisplay:10.37,2013-03-11 16:59:00,
2013-03-11 13:04:00,49.2,28.2,30.06,South,185,3.5,3.5,44,0.00,BKN,FEW,0.00,236.0,WeatherDisplay:10.37,2013-03-11 17:04:00,
2013-03-11 13:09:00,49.2,28.2,30.06,South,184,5.0,5.0,44,0.00,BKN,FEW,0.00,227.0,WeatherDisplay:10.37,2013-03-11 17:09:00,
2013-03-11 13:14:00,49.1,28.1,30.06,South,184,1.2,1.2,44,0.00,BKN,FEW,0.00,227.0,WeatherDisplay:10.37,2013-03-11 17:14:00,
2013-03-11 13:19:00,49.2,28.7,30.06,South,184,0.0,0.0,45,0.00,BKN,FEW,0.00,239.0,WeatherDisplay:10.37,2013-03-11 17:19:00,
2013-03-11 13:24:00,49.4,27.8,30.06,South,184,0.0,0.0,43,0.00,BKN,FEW,0.00,223.0,WeatherDisplay:10.37,2013-03-11 17:24:00,
2013-03-11 13:29:00,49.9,27.7,30.06,South,184,2.0,2.0,42,0.00,BKN,FEW,0.00,248.0,WeatherDisplay:10.37,2013-03-11 17:29:00,
2013-03-11 13:34:00,50.6,27.7,30.06,South,184,1.2,1.2,41,0.00,BKN,FEW,0.00,236.0,WeatherDisplay:10.37,2013-03-11 17:34:00,
2013-03-11 13:40:00,51.0,28.1,30.06,South,184,4.0,4.0,41,0.00,BKN,FEW,0.00,220.0,WeatherDisplay:10.37,2013-03-11 17:40:00,
2013-03-11 13:45:00,51.2,27.7,30.06,South,175,6.0,6.0,40,0.00,BKN,FEW,0.00,221.0,WeatherDisplay:10.37,2013-03-11 17:45:00,
2013-03-11 13:50:00,51.4,25.3,30.06,South,180,4.0,4.0,36,0.00,BKN,FEW,0.00,232.0,WeatherDisplay:10.37,2013-03-11 17:50:00,
2013-03-11 13:55:00,51.4,26.6,30.06,South,190,4.0,4.0,38,0.00,BKN,FEW,0.00,229.0,WeatherDisplay:10.37,2013-03-11 17:55:00,
2013-03-11 14:00:00,51.4,26.0,30.06,South,178,12.0,12.0,37,0.00,BKN,FEW,0.00,239.0,WeatherDisplay:10.37,2013-03-11 18:00:00,
2013-03-11 14:05:00,51.5,25.4,30.05,South,176,10.4,10.4,36,0.00,BKN,FEW,0.00,262.0,WeatherDisplay:10.37,2013-03-11 18:05:00,
2013-03-11 14:10:00,51.5,24.7,30.05,SSE,153,5.8,5.8,35,0.00,BKN,FEW,0.00,279.0,WeatherDisplay:10.37,2013-03-11 18:10:00,
2013-03-11 14:15:00,51.7,25.6,30.04,SE,145,4.0,4.0,36,0.00,BKN,FEW,0.00,304.0,WeatherDisplay:10.37,2013-03-11 18:15:00,
2013-03-11 14:20:00,51.8,25.0,30.04,SE,127,3.5,3.5,35,0.00,BKN,FEW,0.00,292.0,WeatherDisplay:10.37,2013-03-11 18:20:00,
2013-03-11 14:25:00,51.8,25.0,30.04,SSE,167,5.0,5.0,35,0.00,BKN,FEW,0.00,274.0,WeatherDisplay:10.37,2013-03-11 18:25:00,
2013-03-11 14:30:00,51.8,25.0,30.04,SSE,148,3.5,3.5,35,0.00,BKN,FEW,0.00,244.0,WeatherDisplay:10.37,2013-03-11 18:30:00,
2013-03-11 14:35:00,51.7,24.9,30.04,ESE,121,6.0,6.0,35,0.00,BKN,FEW,0.00,232.0,WeatherDisplay:10.37,2013-03-11 18:35:00,
2013-03-11 14:40:00,51.5,24.7,30.04,SE,137,5.0,5.0,35,0.00,BKN,FEW,0.00,229.0,WeatherDisplay:10.37,2013-03-11 18:40:00,
2013-03-11 14:45:00,51.5,24.7,30.04,SSE,160,9.0,9.0,35,0.00,BKN,FEW,0.00,244.0,WeatherDisplay:10.37,2013-03-11 18:45:00,
2013-03-11 14:50:00,51.5,24.7,30.04,South,174,5.0,5.0,35,0.00,BKN,FEW,0.00,239.0,WeatherDisplay:10.37,2013-03-11 18:50:00,
2013-03-11 14:55:00,51.4,24.6,30.04,South,169,5.8,5.8,35,0.00,BKN,FEW,0.00,230.0,WeatherDisplay:10.37,2013-03-11 18:55:00,
2013-03-11 15:00:00,51.3,25.2,30.03,SSW,200,11.5,11.5,36,0.00,BKN,FEW,0.00,218.0,WeatherDisplay:10.37,2013-03-11 19:00:00,
2013-03-11 15:05:00,51.4,25.3,30.03,SSW,206,7.0,7.0,36,0.00,SCT,FEW,0.00,218.0,WeatherDisplay:10.37,2013-03-11 19:05:00,
2013-03-11 15:10:00,50.7,27.2,30.03,South,180,13.0,13.0,40,0.00,SCT,FEW,0.00,230.0,WeatherDisplay:10.37,2013-03-11 19:10:00,
2013-03-11 15:15:00,49.0,28.6,30.03,South,190,3.5,3.5,45,0.00,SCT,FEW,0.00,223.0,WeatherDisplay:10.37,2013-03-11 19:15:00,
2013-03-11 15:20:00,48.4,28.5,30.03,SSW,199,3.0,3.0,46,0.00,SCT,FEW,0.00,260.0,WeatherDisplay:10.37,2013-03-11 19:20:00,
2013-03-11 15:25:00,48.3,28.5,30.03,South,181,3.0,3.0,46,0.00,SCT,FEW,0.00,299.0,WeatherDisplay:10.37,2013-03-11 19:25:00,
2013-03-11 15:30:00,48.4,28.0,30.03,SE,145,2.3,2.3,45,0.00,SCT,FEW,0.00,318.0,WeatherDisplay:10.37,2013-03-11 19:30:00,
2013-03-11 15:35:00,48.6,28.2,30.03,SE,144,1.2,1.2,45,0.00,SCT,FEW,0.00,281.0,WeatherDisplay:10.37,2013-03-11 19:35:00,
2013-03-11 15:40:00,49.4,25.4,30.03,SSW,207,10.4,10.4,39,0.00,SCT,FEW,0.00,257.0,WeatherDisplay:10.37,2013-03-11 19:40:00,
2013-03-11 15:45:00,50.3,24.3,30.02,South,191,11.0,11.0,36,0.00,SCT,FEW,0.00,216.0,WeatherDisplay:10.37,2013-03-11 19:45:00,
2013-03-11 15:50:00,50.8,24.8,30.02,SSW,194,17.0,17.0,36,0.00,SCT,FEW,0.00,195.0,WeatherDisplay:10.37,2013-03-11 19:50:00,
2013-03-11 15:55:00,50.9,26.8,30.02,SE,133,4.0,4.0,39,0.00,SCT,FEW,0.00,223.0,WeatherDisplay:10.37,2013-03-11 19:55:00,
2013-03-11 16:00:00,50.4,27.0,30.01,SSE,147,6.0,6.0,40,0.00,SCT,FEW,0.00,216.0,WeatherDisplay:10.37,2013-03-11 20:00:00,
2013-03-11 16:05:00,50.0,26.0,30.01,SSE,165,10.4,10.4,39,0.00,SCT,FEW,0.00,200.0,WeatherDisplay:10.37,2013-03-11 20:05:00,
2013-03-11 16:10:00,50.0,26.0,30.01,South,170,6.0,6.0,39,0.00,SCT,FEW,0.00,169.0,WeatherDisplay:10.37,2013-03-11 20:10:00,
2013-03-11 16:15:00,50.3,25.0,30.02,South,188,6.0,6.0,37,0.00,SCT,FEW,0.00,149.0,WeatherDisplay:10.37,2013-03-11 20:15:00,
2013-03-11 16:20:00,50.5,24.5,30.02,SSW,192,10.4,10.4,36,0.00,SCT,FEW,0.00,132.0,WeatherDisplay:10.37,2013-03-11 20:20:00,
2013-03-11 16:25:00,50.7,24.7,30.02,SW,223,6.0,6.0,36,0.00,SCT,FEW,0.00,120.0,WeatherDisplay:10.37,2013-03-11 20:25:00,
2013-03-11 16:30:00,50.8,24.8,30.01,SSE,157,11.5,11.5,36,0.00,SCT,FEW,0.00,109.0,WeatherDisplay:10.37,2013-03-11 20:30:00,
2013-03-11 16:35:00,50.5,24.5,30.02,South,178,9.2,9.2,36,0.00,SCT,FEW,0.00,104.0,WeatherDisplay:10.37,2013-03-11 20:35:00,
2013-03-11 16:40:00,50.4,24.4,30.02,South,190,11.0,11.0,36,0.00,SCT,FEW,0.00,95.0,WeatherDisplay:10.37,2013-03-11 20:40:00,
2013-03-11 16:45:00,50.3,24.3,30.01,ESE,118,8.1,8.1,36,0.00,SCT,FEW,0.00,86.0,WeatherDisplay:10.37,2013-03-11 20:45:00,
2013-03-11 16:50:00,50.1,24.8,30.02,SSE,158,12.0,12.0,37,0.00,SCT,FEW,0.00,76.0,WeatherDisplay:10.37,2013-03-11 20:50:00,
2013-03-11 16:55:00,49.9,24.6,30.02,South,178,5.8,5.8,37,0.00,SCT,FEW,0.00,72.0,WeatherDisplay:10.37,2013-03-11 20:55:00,
2013-03-11 17:00:00,49.8,25.2,30.01,SW,221,4.0,4.0,38,0.00,SCT,FEW,0.00,67.0,WeatherDisplay:10.37,2013-03-11 21:00:00,
2013-03-11 17:06:00,49.6,23.7,30.01,South,175,5.0,5.0,36,0.00,CLR,FEW,0.00,63.0,WeatherDisplay:10.37,2013-03-11 21:06:00,
2013-03-11 17:11:00,49.6,24.4,30.01,South,189,5.0,5.0,37,0.00,CLR,FEW,0.00,60.0,WeatherDisplay:10.37,2013-03-11 21:11:00,
2013-03-11 17:16:00,49.6,23.7,30.01,SSE,162,2.3,2.3,36,0.00,CLR,FEW,0.00,53.0,WeatherDisplay:10.37,2013-03-11 21:16:00,
2013-03-11 17:21:00,49.4,25.4,30.01,SSE,159,3.5,3.5,39,0.00,CLR,FEW,0.00,49.0,WeatherDisplay:10.37,2013-03-11 21:21:00,
2013-03-11 17:26:00,48.9,26.2,30.01,SSE,165,3.0,3.0,41,0.00,CLR,FEW,0.00,44.0,WeatherDisplay:10.37,2013-03-11 21:26:00,
2013-03-11 17:31:00,48.2,26.7,30.01,SSE,150,0.0,0.0,43,0.00,CLR,FEW,0.00,39.0,WeatherDisplay:10.37,2013-03-11 21:31:00,
2013-03-11 17:36:00,47.9,27.0,30.01,SE,144,3.0,3.0,44,0.00,CLR,FEW,0.00,35.0,WeatherDisplay:10.37,2013-03-11 21:36:00,
2013-03-11 17:41:00,47.4,26.6,30.01,ESE,119,4.0,4.0,44,0.00,CLR,FEW,0.00,35.0,WeatherDisplay:10.37,2013-03-11 21:41:00,
2013-03-11 17:46:00,47.2,26.9,30.01,ESE,117,3.5,3.5,45,0.00,CLR,FEW,0.00,35.0,WeatherDisplay:10.37,2013-03-11 21:46:00,
2013-03-11 17:51:00,47.0,27.8,30.01,ESE,114,3.5,3.5,47,0.00,CLR,FEW,0.00,33.0,WeatherDisplay:10.37,2013-03-11 21:51:00,
2013-03-11 17:56:00,46.7,27.5,30.01,ESE,118,3.5,3.5,47,0.00,CLR,FEW,0.00,33.0,WeatherDisplay:10.37,2013-03-11 21:56:00,
2013-03-11 18:01:00,46.3,27.7,30.02,ESE,105,2.3,2.3,48,0.00,CLR,FEW,0.00,28.0,WeatherDisplay:10.37,2013-03-11 22:01:00,
2013-03-11 18:06:00,46.0,27.9,30.02,ESE,115,4.0,4.0,49,0.00,FEW,,0.00,25.0,WeatherDisplay:10.37,2013-03-11 22:06:00,
2013-03-11 18:11:00,45.5,27.9,30.02,ESE,115,5.0,5.0,50,0.00,FEW,,0.00,21.0,WeatherDisplay:10.37,2013-03-11 22:11:00,
2013-03-11 18:16:00,44.9,28.3,30.02,SE,126,5.0,5.0,52,0.00,FEW,,0.00,16.0,WeatherDisplay:10.37,2013-03-11 22:16:00,
2013-03-11 18:21:00,44.1,28.5,30.02,ESE,111,7.0,7.0,54,0.00,FEW,,0.00,12.0,WeatherDisplay:10.37,2013-03-11 22:21:00,
2013-03-11 18:27:00,43.3,28.2,30.02,ESE,105,5.0,5.0,55,0.00,FEW,,0.00,9.0,WeatherDisplay:10.37,2013-03-11 22:27:00,
2013-03-11 18:32:00,42.8,28.6,30.02,SE,128,5.0,5.0,57,0.00,FEW,,0.00,7.0,WeatherDisplay:10.37,2013-03-11 22:32:00,
2013-03-11 18:37:00,42.2,28.9,30.02,ENE,66,3.5,3.5,59,0.00,FEW,,0.00,0.0,WeatherDisplay:10.37,2013-03-11 22:37:00,
2013-03-11 18:43:00,41.7,28.8,30.02,ESE,104,3.5,3.5,60,0.00,FEW,,0.00,0.0,WeatherDisplay:10.37,2013-03-11 22:43:00,
2013-03-11 18:48:00,41.4,28.9,30.02,East,101,4.0,4.0,61,0.00,FEW,,0.00,0.0,WeatherDisplay:10.37,2013-03-11 22:48:00,
2013-03-11 18:53:00,41.1,28.7,30.02,ESE,113,5.0,5.0,61,0.00,FEW,,0.00,0.0,WeatherDisplay:10.37,2013-03-11 22:53:00,
2013-03-11 18:58:00,40.9,28.9,30.02,ESE,121,5.0,5.0,62,0.00,FEW,,0.00,0.0,WeatherDisplay:10.37,2013-03-11 22:58:00,
2013-03-11 19:03:00,41.0,29.0,30.01,SE,125,5.0,5.0,62,0.00,BKN,FEW,0.00,0.0,WeatherDisplay:10.37,2013-03-11 23:03:00,
2013-03-11 19:08:00,41.0,29.0,30.01,ESE,114,4.6,4.6,62,0.00,BKN,FEW,0.00,0.0,WeatherDisplay:10.37,2013-03-11 23:08:00,
2013-03-11 19:13:00,40.8,28.8,30.01,SE,145,3.5,3.5,62,0.00,BKN,FEW,0.00,0.0,WeatherDisplay:10.37,2013-03-11 23:13:00,
2013-03-11 19:18:00,40.7,29.1,30.01,ESE,121,5.0,5.0,63,0.00,BKN,FEW,0.00,0.0,WeatherDisplay:10.37,2013-03-11 23:18:00,
2013-03-11 19:23:00,40.6,29.0,30.01,SSE,147,3.5,3.5,63,0.00,BKN,FEW,0.00,0.0,WeatherDisplay:10.37,2013-03-11 23:23:00,
2013-03-11 19:28:00,40.6,29.0,30.02,ESE,112,3.5,3.5,63,0.00,BKN,FEW,0.00,0.0,WeatherDisplay:10.37,2013-03-11 23:28:00,
2013-03-11 19:33:00,40.5,29.3,30.01,ESE,103,5.0,5.0,64,0.00,BKN,FEW,0.00,0.0,WeatherDisplay:10.37,2013-03-11 23:33:00,
2013-03-11 19:38:00,40.3,29.1,30.01,ESE,108,5.8,5.8,64,0.00,BKN,FEW,0.00,0.0,WeatherDisplay:10.37,2013-03-11 23:38:00,
2013-03-11 19:43:00,40.2,29.0,30.01,East,97,4.0,4.0,64,0.00,BKN,FEW,0.00,0.0,WeatherDisplay:10.37,2013-03-11 23:43:00,
2013-03-11 19:49:00,40.1,28.9,30.01,East,96,5.8,5.8,64,0.00,BKN,FEW,0.00,0.0,WeatherDisplay:10.37,2013-03-11 23:49:00,
2013-03-11 19:54:00,40.0,28.8,30.01,East,98,3.5,3.5,64,0.00,BKN,FEW,0.00,0.0,WeatherDisplay:10.37,2013-03-11 23:54:00,
2013-03-11 19:59:00,39.9,28.7,30.01,East,90,5.0,5.0,64,0.00,BKN,FEW,0.00,0.0,WeatherDisplay:10.37,2013-03-11 23:59:00,
2013-03-11 20:04:00,39.9,28.7,30.01,ESE,104,6.0,6.0,64,0.00,BKN,FEW,0.00,0.0,WeatherDisplay:10.37,2013-03-12 00:04:00,
2013-03-11 20:09:00,39.9,28.7,30.01,ESE,106,7.0,7.0,64,0.00,BKN,FEW,0.00,0.0,WeatherDisplay:10.37,2013-03-12 00:09:00,
2013-03-11 20:14:00,40.0,28.8,30.01,ESE,108,3.5,3.5,64,0.00,BKN,FEW,0.00,0.0,WeatherDisplay:10.37,2013-03-12 00:14:00,
2013-03-11 20:19:00,40.0,28.4,30.01,East,88,9.2,9.2,63,0.00,BKN,FEW,0.00,0.0,WeatherDisplay:10.37,2013-03-12 00:19:00,
2013-03-11 20:24:00,40.1,28.5,30.01,ESE,105,5.8,5.8,63,0.00,BKN,FEW,0.00,0.0,WeatherDisplay:10.37,2013-03-12 00:24:00,
2013-03-11 20:29:00,40.0,28.4,30.01,SSE,159,7.0,7.0,63,0.00,BKN,FEW,0.00,0.0,WeatherDisplay:10.37,2013-03-12 00:29:00,
2013-03-11 20:34:00,39.7,28.5,30.01,SE,133,4.0,4.0,64,0.00,BKN,FEW,0.00,0.0,WeatherDisplay:10.37,2013-03-12 00:34:00,
2013-03-11 20:39:00,39.4,28.6,30.01,ESE,117,4.0,4.0,65,0.00,BKN,FEW,0.00,0.0,WeatherDisplay:10.37,2013-03-12 00:39:00,
2013-03-11 20:44:00,39.1,28.7,30.00,SSE,156,9.2,9.2,66,0.00,BKN,FEW,0.00,0.0,WeatherDisplay:10.37,2013-03-12 00:44:00,
2013-03-11 20:49:00,39.1,28.3,30.01,ESE,114,6.0,6.0,65,0.00,BKN,FEW,0.00,0.0,WeatherDisplay:10.37,2013-03-12 00:49:00,
2013-03-11 20:54:00,39.2,28.4,30.01,ESE,107,7.0,7.0,65,0.00,BKN,FEW,0.00,0.0,WeatherDisplay:10.37,2013-03-12 00:54:00,
2013-03-11 21:00:00,39.2,28.4,30.01,East,93,6.9,6.9,65,0.00,BKN,FEW,0.00,0.0,WeatherDisplay:10.37,2013-03-12 01:00:00,
2013-03-11 21:05:00,39.2,28.0,30.01,ESE,118,5.8,5.8,64,0.00,FEW,,0.00,0.0,WeatherDisplay:10.37,2013-03-12 01:05:00,
2013-03-11 21:10:00,39.3,28.1,30.01,SE,144,1.2,1.2,64,0.00,FEW,,0.00,0.0,WeatherDisplay:10.37,2013-03-12 01:10:00,
2013-03-11 21:15:00,39.3,28.1,30.01,East,92,4.0,4.0,64,0.00,FEW,,0.00,0.0,WeatherDisplay:10.37,2013-03-12 01:15:00,
2013-03-11 21:20:00,39.0,28.2,30.01,SSE,158,1.2,0.0,65,0.00,FEW,,0.00,0.0,WeatherDisplay:10.37,2013-03-12 01:20:00,
2013-03-11 21:25:00,38.7,27.9,30.00,SSE,154,1.2,1.2,65,0.00,FEW,,0.00,0.0,WeatherDisplay:10.37,2013-03-12 01:25:00,
2013-03-11 21:30:00,38.7,27.9,30.00,ESE,118,4.0,4.0,65,0.00,FEW,,0.00,0.0,WeatherDisplay:10.37,2013-03-12 01:30:00,
2013-03-11 21:35:00,38.7,27.9,29.99,SSE,159,5.0,5.0,65,0.00,FEW,,0.00,0.0,WeatherDisplay:10.37,2013-03-12 01:35:00,
2013-03-11 21:40:00,38.5,28.1,29.99,SSE,163,4.0,4.0,66,0.00,FEW,,0.00,0.0,WeatherDisplay:10.37,2013-03-12 01:40:00,
2013-03-11 21:45:00,38.3,27.9,29.99,SSE,151,2.3,2.3,66,0.00,FEW,,0.00,0.0,WeatherDisplay:10.37,2013-03-12 01:45:00,
2013-03-11 21:50:00,38.4,27.3,29.99,South,175,4.0,4.0,64,0.00,FEW,,0.00,0.0,WeatherDisplay:10.37,2013-03-12 01:50:00,
2013-03-11 21:55:00,38.7,26.8,29.98,SSE,159,5.8,5.8,62,0.00,FEW,,0.00,0.0,WeatherDisplay:10.37,2013-03-12 01:55:00,
2013-03-11 22:00:00,39.2,26.9,29.98,SSE,156,4.6,4.6,61,0.00,FEW,,0.00,0.0,WeatherDisplay:10.37,2013-03-12 02:00:00,
2013-03-11 22:05:00,39.6,26.4,29.98,South,175,11.0,11.0,59,0.00,CLR,FEW,0.00,0.0,WeatherDisplay:10.37,2013-03-12 02:05:00,
2013-03-11 22:10:00,40.1,26.5,29.98,SSE,164,7.0,7.0,58,0.00,CLR,FEW,0.00,0.0,WeatherDisplay:10.37,2013-03-12 02:10:00,
2013-03-11 22:15:00,40.3,26.7,29.98,South,178,10.4,10.4,58,0.00,CLR,FEW,0.00,0.0,WeatherDisplay:10.37,2013-03-12 02:15:00,
2013-03-11 22:20:00,40.2,26.6,29.98,SSE,154,10.4,10.4,58,0.00,CLR,FEW,0.00,0.0,WeatherDisplay:10.37,2013-03-12 02:20:00,
2013-03-11 22:25:00,40.1,26.5,29.98,South,171,13.0,13.0,58,0.00,CLR,FEW,0.00,0.0,WeatherDisplay:10.37,2013-03-12 02:25:00,
2013-03-11 22:30:00,40.3,26.3,29.98,SSE,160,12.0,12.0,57,0.00,CLR,FEW,0.00,0.0,WeatherDisplay:10.37,2013-03-12 02:30:00,
2013-03-11 22:35:00,40.3,26.3,29.98,SE,142,10.4,10.4,57,0.00,CLR,FEW,0.00,0.0,WeatherDisplay:10.37,2013-03-12 02:35:00,
2013-03-11 22:40:00,40.2,26.2,29.99,South,171,9.2,9.2,57,0.00,CLR,FEW,0.00,0.0,WeatherDisplay:10.37,2013-03-12 02:40:00,
2013-03-11 22:45:00,40.2,25.7,29.99,South,179,9.2,9.2,56,0.00,CLR,FEW,0.00,0.0,WeatherDisplay:10.37,2013-03-12 02:45:00,
2013-03-11 22:50:00,40.2,25.7,29.99,South,180,10.4,10.4,56,0.00,CLR,FEW,0.00,0.0,WeatherDisplay:10.37,2013-03-12 02:50:00,
2013-03-11 22:55:00,40.2,25.7,29.98,SE,135,8.1,8.1,56,0.00,CLR,FEW,0.00,0.0,WeatherDisplay:10.37,2013-03-12 02:55:00,
2013-03-11 23:00:00,40.0,26.0,29.98,SSE,158,11.5,11.5,57,0.00,CLR,FEW,0.00,0.0,WeatherDisplay:10.37,2013-03-12 03:00:00,
2013-03-11 23:05:00,39.6,26.4,29.97,SSE,152,10.4,10.4,59,0.00,FEW,,0.00,0.0,WeatherDisplay:10.37,2013-03-12 03:05:00,
2013-03-11 23:10:00,39.3,26.2,29.98,SE,134,10.0,10.0,59,0.00,FEW,,0.00,0.0,WeatherDisplay:10.37,2013-03-12 03:10:00,
2013-03-11 23:15:00,39.6,25.2,29.97,SE,146,9.2,9.2,56,0.00,FEW,,0.00,0.0,WeatherDisplay:10.37,2013-03-12 03:15:00,
2013-03-11 23:20:00,39.8,25.8,29.97,SE,140,7.0,7.0,57,0.00,FEW,,0.00,0.0,WeatherDisplay:10.37,2013-03-12 03:20:00,
2013-03-11 23:25:00,39.6,25.6,29.97,SSE,161,6.0,6.0,57,0.00,FEW,,0.00,0.0,WeatherDisplay:10.37,2013-03-12 03:25:00,
2013-03-11 23:30:00,39.5,25.5,29.98,South,184,7.0,7.0,57,0.00,FEW,,0.00,0.0,WeatherDisplay:10.37,2013-03-12 03:30:00,
2013-03-11 23:35:00,39.8,25.4,29.98,SSE,157,9.2,9.2,56,0.00,FEW,,0.00,0.0,WeatherDisplay:10.37,2013-03-12 03:35:00,
2013-03-11 23:40:00,39.9,25.5,29.98,SSE,153,5.0,5.0,56,0.00,FEW,,0.00,0.0,WeatherDisplay:10.37,2013-03-12 03:40:00,
2013-03-11 23:45:00,40.0,25.1,29.98,South,175,7.0,7.0,55,0.00,FEW,,0.00,0.0,WeatherDisplay:10.37,2013-03-12 03:45:00,
2013-03-11 23:50:00,40.0,25.6,29.98,SSE,161,3.5,3.5,56,0.00,FEW,,0.00,0.0,WeatherDisplay:10.37,2013-03-12 03:50:00,
2013-03-11 23:55:00,39.9,25.0,29.98,South,169,8.1,8.1,55,0.00,FEW,,0.00,0.0,WeatherDisplay:10.37,2013-03-12 03:55:00,